createdAt,value
2023-04-22T00:01:50.528Z,61669.03
2023-04-22T00:06:55.965Z,61688.13
2023-04-22T00:11:59.032Z,61683.94
2023-04-22T00:17:04.468Z,61702.50
2023-04-22T00:22:08.980Z,61683.41
2023-04-22T00:27:11.893Z,61682.56
2023-04-22T00:32:14.601Z,61622.66
2023-04-22T00:37:18.829Z,61632.72
2023-04-22T00:42:22.983Z,61633.78
2023-04-22T00:47:27.921Z,61608.66
2023-04-22T00:52:32.190Z,61607.50
2023-04-22T00:57:35.914Z,61602.53
2023-04-22T01:02:39.573Z,61602.34
2023-04-22T01:07:43.787Z,61575.81
2023-04-22T01:12:46.486Z,61580.53
2023-04-22T01:18:10.012Z,61592.66
2023-04-22T01:23:20.367Z,61596.78
2023-04-22T01:28:24.829Z,61624.81
2023-04-22T01:33:27.908Z,61625.00
2023-04-22T01:38:33.570Z,61616.66
2023-04-22T01:43:37.575Z,61621.06
2023-04-22T01:48:42.029Z,61593.84
2023-04-22T01:53:46.121Z,61569.28
2023-04-22T01:58:50.602Z,61608.00
2023-04-22T02:03:53.567Z,61575.78
2023-04-22T02:08:57.707Z,61590.84
2023-04-22T02:14:00.535Z,61591.44
2023-04-22T02:19:03.328Z,61576.38
2023-04-22T02:24:08.358Z,61589.91
2023-04-22T02:29:11.128Z,61601.91
2023-04-22T02:34:13.902Z,61564.47
2023-04-22T02:39:18.974Z,61588.72
2023-04-22T02:44:21.803Z,61573.47
2023-04-22T02:49:24.504Z,61604.09
2023-04-22T02:54:28.537Z,61538.41
2023-04-22T02:59:32.864Z,61580.88
2023-04-22T03:04:36.131Z,61584.19
2023-04-22T03:09:40.899Z,61608.25
2023-04-22T03:14:44.310Z,61627.34
2023-04-22T03:19:47.070Z,61636.06
2023-04-22T03:24:51.251Z,61613.94
2023-04-22T03:29:54.012Z,61643.53
2023-04-22T03:34:56.859Z,61629.06
2023-04-22T03:40:00.963Z,61633.97
2023-04-22T03:45:03.867Z,61648.44
2023-04-22T03:50:08.315Z,61681.88
2023-04-22T03:55:12.489Z,61698.19
2023-04-22T04:00:17.642Z,61695.88
2023-04-22T04:05:20.756Z,61675.28
2023-04-22T04:10:25.159Z,61731.69
2023-04-22T04:15:27.942Z,61762.53
2023-04-22T04:20:30.799Z,61730.06
2023-04-22T04:25:38.554Z,61751.44
2023-04-22T04:30:42.387Z,61778.69
2023-04-22T04:35:48.288Z,61823.88
2023-04-22T04:40:53.745Z,61755.88
2023-04-22T04:45:56.695Z,61817.50
2023-04-22T04:51:00.174Z,61792.19
2023-04-22T04:56:04.236Z,61799.34
2023-04-22T05:01:07.354Z,61818.09
2023-04-22T05:06:10.658Z,61817.75
2023-04-22T05:11:14.742Z,61873.34
2023-04-22T05:16:18.059Z,61878.69
2023-04-22T05:21:20.896Z,61926.66
2023-04-22T05:26:24.916Z,61933.63
2023-04-22T05:31:46.669Z,61955.66
2023-04-22T05:36:49.633Z,61991.22
2023-04-22T05:41:54.830Z,61996.63
2023-04-22T05:46:57.831Z,62019.19
2023-04-22T05:52:00.606Z,62054.38
2023-04-22T05:57:04.892Z,62056.34
2023-04-22T06:02:08.272Z,62043.00
2023-04-22T06:07:11.556Z,62040.69
2023-04-22T06:12:16.619Z,62002.44
2023-04-22T06:17:19.501Z,61993.88
2023-04-22T06:22:22.478Z,61973.22
2023-04-22T06:27:47.590Z,62000.69
2023-04-22T06:32:50.451Z,61978.16
2023-04-22T06:37:55.951Z,61989.91
2023-04-22T06:43:00.536Z,62008.47
2023-04-22T06:48:03.518Z,61990.94
2023-04-22T06:53:06.253Z,62023.88
2023-04-22T06:58:11.419Z,62084.91
2023-04-22T07:03:14.780Z,62123.47
2023-04-22T07:08:17.472Z,62162.34
2023-04-22T07:13:22.532Z,62205.16
2023-04-22T07:18:27.401Z,62349.00
2023-04-22T07:23:52.993Z,62592.59
2023-04-22T07:28:57.500Z,62771.25
2023-04-22T07:34:00.750Z,62950.09
2023-04-22T07:45:30.674Z,63145.72
2023-04-22T07:50:33.464Z,63181.94
2023-04-22T07:55:36.151Z,63241.47
2023-04-22T08:00:40.205Z,63304.06
2023-04-22T08:05:42.915Z,63260.47
2023-04-22T08:10:46.645Z,63292.59
2023-04-22T08:15:50.923Z,63146.47
2023-04-22T08:20:53.645Z,63133.28
2023-04-22T08:25:57.711Z,63220.47
2023-04-22T08:31:04.148Z,63355.53
2023-04-22T08:36:08.617Z,63365.81
2023-04-22T08:41:34.878Z,63306.91
2023-04-22T08:46:42.592Z,63296.03
2023-04-22T08:51:46.623Z,63295.88
2023-04-22T08:56:52.243Z,63131.47
2023-04-22T09:01:58.404Z,63246.16
2023-04-22T09:07:03.379Z,63184.47
2023-04-22T09:12:08.964Z,63127.25
2023-04-22T09:17:16.518Z,63216.28
2023-04-22T09:22:19.372Z,63300.56
2023-04-22T09:27:26.068Z,63369.06
2023-04-22T09:32:30.412Z,63236.47
2023-04-22T09:37:42.781Z,63285.19
2023-04-22T09:42:54.537Z,63199.41
2023-04-22T09:48:02.771Z,63365.91
2023-04-22T09:53:07.924Z,63524.50
2023-04-22T09:58:12.385Z,63558.13
2023-04-22T10:03:17.853Z,63493.06
2023-04-22T10:08:20.804Z,63442.81
2023-04-22T10:13:23.791Z,63496.97
2023-04-22T10:18:32.968Z,63608.81
2023-04-22T10:23:35.972Z,63613.91
2023-04-22T10:28:45.918Z,63488.31
2023-04-22T10:33:50.142Z,63453.34
2023-04-22T10:39:17.063Z,63440.56
2023-04-22T10:44:21.158Z,63585.63
2023-04-22T10:49:26.416Z,63384.16
2023-04-22T11:00:53.185Z,63537.66
2023-04-22T11:06:17.812Z,63578.72
2023-04-22T11:11:22.968Z,63603.94
2023-04-22T11:16:25.973Z,63538.94
2023-04-22T11:21:32.602Z,63509.09
2023-04-22T11:26:36.283Z,63515.44
2023-04-22T11:31:41.668Z,63634.63
2023-04-22T11:36:47.097Z,63554.25
2023-04-22T11:41:51.784Z,63615.91
2023-04-22T11:46:57.912Z,63718.97
2023-04-22T11:52:04.599Z,63607.19
2023-04-22T11:57:09.462Z,63706.19
2023-04-22T12:02:12.997Z,63587.06
2023-04-22T12:07:17.882Z,63389.00
2023-04-22T12:12:25.699Z,63483.34
2023-04-22T12:17:28.724Z,63524.56
2023-04-22T12:22:35.326Z,63501.97
2023-04-22T12:27:38.256Z,63535.03
2023-04-22T12:33:02.033Z,63574.50
2023-04-22T12:38:06.401Z,63504.00
2023-04-22T12:43:09.187Z,63366.81
2023-04-22T12:48:12.121Z,63242.06
2023-04-22T12:53:16.704Z,63318.25
2023-04-22T12:58:20.927Z,63270.13
2023-04-22T13:03:25.899Z,63239.47
2023-04-22T13:08:30.893Z,63193.03
2023-04-22T13:13:33.674Z,63198.47
2023-04-22T13:18:36.366Z,63250.25
2023-04-22T13:23:40.707Z,63324.72
2023-04-22T13:28:43.473Z,63340.75
2023-04-22T13:33:47.444Z,63353.94
2023-04-22T13:39:10.908Z,63213.38
2023-04-22T13:44:14.080Z,63191.13
2023-04-22T13:49:19.121Z,63227.50
2023-04-22T13:54:26.076Z,63245.25
2023-04-22T13:59:28.786Z,63225.84
2023-04-22T14:04:31.558Z,63244.91
2023-04-22T14:09:36.614Z,63233.22
2023-04-22T14:14:39.654Z,63218.25
2023-04-22T14:19:44.988Z,63150.69
2023-04-22T14:24:50.256Z,63151.03
2023-04-22T14:29:53.291Z,63088.78
2023-04-22T14:34:56.167Z,63052.44
2023-04-22T14:40:01.585Z,62891.59
2023-04-22T14:51:31.600Z,62676.69
2023-04-22T14:56:37.268Z,62642.09
2023-04-22T15:01:43.184Z,62601.13
2023-04-22T15:06:48.365Z,62588.41
2023-04-22T15:11:54.780Z,62555.38
2023-04-22T15:16:59.204Z,62571.66
2023-04-22T15:22:01.966Z,62582.78
2023-04-22T15:27:07.864Z,62610.88
2023-04-22T15:32:12.241Z,62614.84
2023-04-22T15:37:15.834Z,62629.25
2023-04-22T15:42:20.048Z,62624.66
2023-04-22T15:47:23.404Z,62557.13
2023-04-22T15:52:26.145Z,62572.81
2023-04-22T15:57:34.391Z,62606.50
2023-04-22T16:02:37.906Z,62527.94
2023-04-22T16:07:40.814Z,62544.63
2023-04-22T16:12:45.346Z,62503.47
2023-04-22T16:17:48.146Z,62533.09
2023-04-22T16:22:52.046Z,62493.50
2023-04-22T16:27:56.400Z,62498.91
2023-04-22T16:32:59.213Z,62468.00
2023-04-22T16:38:28.905Z,62426.72
2023-04-22T16:43:33.978Z,62413.34
2023-04-22T16:48:39.967Z,62428.47
2023-04-22T16:53:42.757Z,62405.34
2023-04-22T16:58:46.981Z,62421.97
2023-04-22T17:03:49.798Z,62376.91
2023-04-22T17:08:52.814Z,62419.34
2023-04-22T17:13:57.040Z,62379.97
2023-04-22T17:19:01.333Z,62400.34
2023-04-22T17:24:05.735Z,62413.91
2023-04-22T17:29:10.099Z,62413.91
2023-04-22T17:34:14.152Z,62377.25
2023-04-22T17:39:17.008Z,62374.09
2023-04-22T17:44:21.325Z,62365.13
2023-04-22T17:49:24.404Z,62423.31
2023-04-22T17:54:27.239Z,62409.66
2023-04-22T17:59:31.684Z,62411.25
2023-04-22T18:04:34.522Z,62383.75
2023-04-22T18:09:38.405Z,62383.16
2023-04-22T18:14:43.249Z,62359.13
2023-04-22T18:19:46.104Z,62376.13
2023-04-22T18:24:49.057Z,62359.03
2023-04-22T18:29:56.507Z,62349.09
2023-04-22T18:34:59.868Z,62310.63
2023-04-22T18:40:06.409Z,62210.66
2023-04-22T18:45:11.341Z,62154.09
2023-04-22T18:50:14.216Z,62131.72
2023-04-22T18:55:17.795Z,62144.88
2023-04-22T19:00:21.768Z,62099.16
2023-04-22T19:05:24.434Z,62087.97
2023-04-22T19:10:27.800Z,62058.53
2023-04-22T19:15:31.976Z,62108.03
2023-04-22T19:20:34.717Z,62046.38
2023-04-22T19:25:37.851Z,62093.81
2023-04-22T19:30:42.097Z,62080.69
2023-04-22T19:35:44.775Z,62040.50
2023-04-22T19:40:47.515Z,62032.56
2023-04-22T19:45:51.973Z,62033.50
2023-04-22T19:50:54.696Z,62032.97
2023-04-22T19:55:58.183Z,62048.47
2023-04-22T20:01:02.566Z,62011.44
2023-04-22T20:06:06.174Z,62018.66
2023-04-22T20:11:09.876Z,62026.06
2023-04-22T20:16:14.436Z,62024.47
2023-04-22T20:21:17.419Z,62038.91
2023-04-22T20:26:20.793Z,62000.75
2023-04-22T20:31:25.243Z,61990.88
2023-04-22T20:36:28.055Z,62040.84
2023-04-22T20:41:31.463Z,62037.63
2023-04-22T20:46:35.623Z,62011.38
2023-04-22T20:51:38.516Z,62018.03
2023-04-22T20:56:41.150Z,61997.00
2023-04-22T21:01:46.760Z,61964.13
2023-04-22T21:06:51.142Z,61944.28
2023-04-22T21:11:54.687Z,61936.22
2023-04-22T21:17:04.067Z,61898.16
2023-04-22T21:22:07.102Z,61898.84
2023-04-22T21:27:09.877Z,61885.03
2023-04-22T21:32:14.087Z,61862.91
2023-04-22T21:37:17.006Z,61870.41
2023-04-22T21:42:19.581Z,61876.22
2023-04-22T21:47:23.504Z,61840.13
2023-04-22T21:52:26.846Z,61853.59
2023-04-22T21:57:30.185Z,61813.75
2023-04-22T22:02:34.315Z,61823.31
2023-04-22T22:07:38.452Z,61840.28
2023-04-22T22:12:41.764Z,61797.06
2023-04-22T22:17:46.194Z,61804.03
2023-04-22T22:22:49.049Z,61797.38
2023-04-22T22:27:53.717Z,61749.50
2023-04-22T22:32:58.700Z,61744.66
2023-04-22T22:38:01.327Z,61728.88
2023-04-22T22:43:03.955Z,61714.16
2023-04-22T22:48:09.292Z,61732.66
2023-04-22T22:53:12.040Z,61742.19
2023-04-22T22:58:14.820Z,61753.38
2023-04-22T23:03:19.840Z,61772.66
2023-04-22T23:08:22.967Z,61769.53
2023-04-22T23:13:25.809Z,61780.56
2023-04-22T23:18:30.777Z,61762.66
2023-04-22T23:23:34.050Z,61782.41
2023-04-22T23:28:37.238Z,61769.44
2023-04-22T23:33:42.921Z,61804.66
2023-04-22T23:38:45.931Z,61787.09
2023-04-22T23:43:48.573Z,61846.63
2023-04-22T23:48:52.840Z,61790.66
2023-04-22T23:53:55.453Z,61767.78
2023-04-22T23:58:58.760Z,61794.28
